sensor_id;sensor_type;location;lat;lon;timestamp;pressure;altitude;pressure_sealevel;temperature;humidity
11190;BME280;5651;50.926;4.718;2023-04-12T00:00:34;100363.56;;;9.14;100.00
11190;BME280;5651;50.926;4.718;2023-04-12T00:03:04;100353.22;;;9.06;100.00
11190;BME280;5651;50.926;4.718;2023-04-12T00:05:30;100333.31;;;9.03;100.00
11190;BME280;5651;50.926;4.718;2023-04-12T00:07:56;100316.84;;;9.01;100.00
11190;BME280;5651;50.926;4.718;2023-04-12T00:10:22;100322.91;;;9.03;100.00
11190;BME280;5651;50.926;4.718;2023-04-12T00:12:48;100321.19;;;9.02;100.00
11190;BME280;5651;50.926;4.718;2023-04-12T00:15:14;100306.41;;;9.08;100.00
11190;BME280;5651;50.926;4.718;2023-04-12T00:17:40;100301.22;;;9.08;100.00
11190;BME280;5651;50.926;4.718;2023-04-12T00:20:06;100285.56;;;9.15;100.00
11190;BME280;5651;50.926;4.718;2023-04-12T00:22:40;100270.88;;;9.10;100.00
11190;BME280;5651;50.926;4.718;2023-04-12T00:25:06;100268.34;;;9.03;100.00
11190;BME280;5651;50.926;4.718;2023-04-12T00:27:32;100260.53;;;9.03;100.00
11190;BME280;5651;50.926;4.718;2023-04-12T00:29:58;100274.44;;;8.98;100.00
11190;BME280;5651;50.926;4.718;2023-04-12T00:32:26;100261.41;;;9.02;100.00
11190;BME280;5651;50.926;4.718;2023-04-12T00:34:52;100245.84;;;9.01;100.00
11190;BME280;5651;50.926;4.718;2023-04-12T00:37:18;100245.78;;;9.04;100.00
11190;BME280;5651;50.926;4.718;2023-04-12T00:39:43;100237.16;;;9.02;100.00
11190;BME280;5651;50.926;4.718;2023-04-12T00:42:09;100222.38;;;9.07;100.00
11190;BME280;5651;50.926;4.718;2023-04-12T00:44:35;100210.25;;;9.06;100.00
11190;BME280;5651;50.926;4.718;2023-04-12T00:47:02;100218.97;;;9.03;100.00
11190;BME280;5651;50.926;4.718;2023-04-12T00:49:29;100211.09;;;9.10;100.00
11190;BME280;5651;50.926;4.718;2023-04-12T00:52:00;100198.09;;;9.11;100.00
11190;BME280;5651;50.926;4.718;2023-04-12T00:54:35;100189.41;;;9.12;100.00
11190;BME280;5651;50.926;4.718;2023-04-12T00:57:01;100201.41;;;9.27;100.00
11190;BME280;5651;50.926;4.718;2023-04-12T00:59:28;100190.19;;;9.24;100.00
11190;BME280;5651;50.926;4.718;2023-04-12T01:01:55;100171.19;;;9.15;100.00
11190;BME280;5651;50.926;4.718;2023-04-12T01:04:21;100154.69;;;9.19;100.00
11190;BME280;5651;50.926;4.718;2023-04-12T01:07:01;100154.72;;;9.16;100.00
11190;BME280;5651;50.926;4.718;2023-04-12T01:09:42;100160.81;;;9.12;100.00
11190;BME280;5651;50.926;4.718;2023-04-12T01:15:05;100147.78;;;9.17;100.00
11190;BME280;5651;50.926;4.718;2023-04-12T01:17:38;100136.56;;;9.10;100.00
11190;BME280;5651;50.926;4.718;2023-04-12T01:20:13;100127.94;;;9.10;100.00
11190;BME280;5651;50.926;4.718;2023-04-12T01:28:06;100087.25;;;9.04;100.00
11190;BME280;5651;50.926;4.718;2023-04-12T01:30:33;100075.22;;;8.98;100.00
11190;BME280;5651;50.926;4.718;2023-04-12T01:33:04;100076.94;;;8.98;100.00
11190;BME280;5651;50.926;4.718;2023-04-12T01:35:31;100069.22;;;8.92;100.00
11190;BME280;5651;50.926;4.718;2023-04-12T01:37:58;100058.81;;;8.92;100.00
11190;BME280;5651;50.926;4.718;2023-04-12T01:40:26;100045.81;;;8.95;100.00
11190;BME280;5651;50.926;4.718;2023-04-12T01:43:12;100037.13;;;8.96;100.00
11190;BME280;5651;50.926;4.718;2023-04-12T01:45:39;100036.28;;;8.94;100.00
11190;BME280;5651;50.926;4.718;2023-04-12T01:48:07;100022.44;;;8.95;100.00
11190;BME280;5651;50.926;4.718;2023-04-12T01:50:50;100012.06;;;8.92;100.00
11190;BME280;5651;50.926;4.718;2023-04-12T01:56:10;99995.63;;;8.90;100.00
11190;BME280;5651;50.926;4.718;2023-04-12T01:58:36;99992.97;;;8.94;100.00
11190;BME280;5651;50.926;4.718;2023-04-12T02:01:04;99985.22;;;8.90;100.00
11190;BME280;5651;50.926;4.718;2023-04-12T02:03:32;99979.94;;;8.99;100.00
11190;BME280;5651;50.926;4.718;2023-04-12T02:05:58;99975.75;;;8.87;100.00
11190;BME280;5651;50.926;4.718;2023-04-12T02:08:24;99968.81;;;8.86;100.00
11190;BME280;5651;50.926;4.718;2023-04-12T02:10:51;99957.38;;;8.99;100.00
11190;BME280;5651;50.926;4.718;2023-04-12T02:13:17;99957.56;;;8.85;100.00
11190;BME280;5651;50.926;4.718;2023-04-12T02:15:43;99944.47;;;8.96;100.00
11190;BME280;5651;50.926;4.718;2023-04-12T02:18:09;99955.69;;;8.97;100.00
11190;BME280;5651;50.926;4.718;2023-04-12T02:20:36;99915.00;;;8.96;100.00
11190;BME280;5651;50.926;4.718;2023-04-12T02:23:01;99919.38;;;8.94;100.00
11190;BME280;5651;50.926;4.718;2023-04-12T02:25:27;99908.13;;;8.92;100.00
11190;BME280;5651;50.926;4.718;2023-04-12T02:27:53;99909.81;;;8.97;100.00
11190;BME280;5651;50.926;4.718;2023-04-12T02:30:19;99911.50;;;9.00;100.00
11190;BME280;5651;50.926;4.718;2023-04-12T02:32:46;99891.69;;;8.91;100.00
11190;BME280;5651;50.926;4.718;2023-04-12T02:35:13;99904.59;;;8.97;100.00
11190;BME280;5651;50.926;4.718;2023-04-12T02:37:43;99889.03;;;8.94;100.00
11190;BME280;5651;50.926;4.718;2023-04-12T02:40:12;99897.66;;;8.98;100.00
11190;BME280;5651;50.926;4.718;2023-04-12T02:42:43;99888.13;;;8.97;100.00
11190;BME280;5651;50.926;4.718;2023-04-12T02:45:10;99877.75;;;8.98;100.00
11190;BME280;5651;50.926;4.718;2023-04-12T02:47:36;99872.56;;;8.97;100.00
11190;BME280;5651;50.926;4.718;2023-04-12T02:50:03;99871.72;;;8.93;100.00
11190;BME280;5651;50.926;4.718;2023-04-12T02:52:29;99870.84;;;8.94;100.00
11190;BME280;5651;50.926;4.718;2023-04-12T02:54:55;99856.06;;;8.99;100.00
11190;BME280;5651;50.926;4.718;2023-04-12T02:57:21;99859.50;;;9.01;100.00
11190;BME280;5651;50.926;4.718;2023-04-12T02:59:50;99850.06;;;8.94;100.00
11190;BME280;5651;50.926;4.718;2023-04-12T03:02:21;99850.09;;;8.93;100.00
11190;BME280;5651;50.926;4.718;2023-04-12T03:04:47;99849.16;;;8.98;100.00
11190;BME280;5651;50.926;4.718;2023-04-12T03:07:16;99834.38;;;9.02;100.00
11190;BME280;5651;50.926;4.718;2023-04-12T03:09:48;99832.66;;;8.99;100.00
11190;BME280;5651;50.926;4.718;2023-04-12T03:12:14;99827.41;;;9.04;100.00
11190;BME280;5651;50.926;4.718;2023-04-12T03:14:41;99820.38;;;9.11;100.00
11190;BME280;5651;50.926;4.718;2023-04-12T03:17:07;99816.16;;;9.03;100.00
11190;BME280;5651;50.926;4.718;2023-04-12T03:19:33;99817.81;;;9.08;100.00
11190;BME280;5651;50.926;4.718;2023-04-12T03:22:02;99807.44;;;9.08;100.00
11190;BME280;5651;50.926;4.718;2023-04-12T03:24:28;99811.75;;;9.09;100.00
11190;BME280;5651;50.926;4.718;2023-04-12T03:26:59;99807.34;;;9.14;100.00
11190;BME280;5651;50.926;4.718;2023-04-12T03:29:26;99795.31;;;9.07;100.00
11190;BME280;5651;50.926;4.718;2023-04-12T03:31:52;99794.47;;;9.06;100.00
11190;BME280;5651;50.926;4.718;2023-04-12T03:34:18;99791.88;;;9.06;100.00
11190;BME280;5651;50.926;4.718;2023-04-12T03:36:44;99799.56;;;9.14;100.00
11190;BME280;5651;50.926;4.718;2023-04-12T03:39:10;99791.56;;;9.26;100.00
11190;BME280;5651;50.926;4.718;2023-04-12T03:41:36;99784.78;;;9.17;100.00
11190;BME280;5651;50.926;4.718;2023-04-12T03:44:02;99783.13;;;9.12;100.00
11190;BME280;5651;50.926;4.718;2023-04-12T03:46:28;99777.78;;;9.19;100.00
11190;BME280;5651;50.926;4.718;2023-04-12T03:48:54;99779.50;;;9.20;100.00
11190;BME280;5651;50.926;4.718;2023-04-12T03:51:20;99762.22;;;9.18;100.00
11190;BME280;5651;50.926;4.718;2023-04-12T03:53:46;99765.66;;;9.18;100.00
11190;BME280;5651;50.926;4.718;2023-04-12T03:56:12;99751.78;;;9.19;100.00
11190;BME280;5651;50.926;4.718;2023-04-12T03:58:38;99756.06;;;9.24;100.00
11190;BME280;5651;50.926;4.718;2023-04-12T04:01:04;99739.69;;;9.20;100.00
11190;BME280;5651;50.926;4.718;2023-04-12T04:03:33;99735.31;;;9.20;100.00
11190;BME280;5651;50.926;4.718;2023-04-12T04:06:00;99737.09;;;9.18;100.00
11190;BME280;5651;50.926;4.718;2023-04-12T04:08:27;99728.38;;;9.23;100.00
11190;BME280;5651;50.926;4.718;2023-04-12T04:10:55;99735.25;;;9.25;100.00
11190;BME280;5651;50.926;4.718;2023-04-12T04:13:21;99737.03;;;9.22;100.00
11190;BME280;5651;50.926;4.718;2023-04-12T04:15:50;99739.63;;;9.22;100.00
11190;BME280;5651;50.926;4.718;2023-04-12T04:18:16;99726.59;;;9.25;100.00
11190;BME280;5651;50.926;4.718;2023-04-12T04:20:42;99732.59;;;9.28;100.00
11190;BME280;5651;50.926;4.718;2023-04-12T04:23:08;99732.50;;;9.33;100.00
11190;BME280;5651;50.926;4.718;2023-04-12T04:25:36;99737.00;;;9.25;100.00
11190;BME280;5651;50.926;4.718;2023-04-12T04:28:05;99724.00;;;9.23;100.00
11190;BME280;5651;50.926;4.718;2023-04-12T04:30:33;99733.44;;;9.29;100.00
11190;BME280;5651;50.926;4.718;2023-04-12T04:33:05;99725.69;;;9.26;100.00
11190;BME280;5651;50.926;4.718;2023-04-12T04:35:31;99728.09;;;9.36;100.00
11190;BME280;5651;50.926;4.718;2023-04-12T04:37:58;99728.78;;;9.48;100.00
11190;BME280;5651;50.926;4.718;2023-04-12T04:40:25;99719.34;;;9.42;100.00
11190;BME280;5651;50.926;4.718;2023-04-12T04:42:50;99716.94;;;9.31;100.00
11190;BME280;5651;50.926;4.718;2023-04-12T04:45:22;99712.63;;;9.32;100.00
11190;BME280;5651;50.926;4.718;2023-04-12T04:47:52;99710.84;;;9.32;100.00
11190;BME280;5651;50.926;4.718;2023-04-12T04:50:21;99712.63;;;9.30;100.00
11190;BME280;5651;50.926;4.718;2023-04-12T04:52:50;99712.63;;;9.30;100.00
11190;BME280;5651;50.926;4.718;2023-04-12T04:55:16;99708.25;;;9.32;100.00
11190;BME280;5651;50.926;4.718;2023-04-12T04:57:43;99707.50;;;9.27;100.00
11190;BME280;5651;50.926;4.718;2023-04-12T05:00:09;99697.81;;;9.35;100.00
11190;BME280;5651;50.926;4.718;2023-04-12T05:02:37;99695.13;;;9.39;100.00
11190;BME280;5651;50.926;4.718;2023-04-12T05:05:08;99695.97;;;9.41;100.00
11190;BME280;5651;50.926;4.718;2023-04-12T05:07:34;99706.09;;;9.56;100.00
11190;BME280;5651;50.926;4.718;2023-04-12T05:10:02;99704.56;;;9.44;100.00
11190;BME280;5651;50.926;4.718;2023-04-12T05:12:28;99700.25;;;9.43;100.00
11190;BME280;5651;50.926;4.718;2023-04-12T05:14:54;99697.66;;;9.43;100.00
11190;BME280;5651;50.926;4.718;2023-04-12T05:17:20;99686.44;;;9.41;100.00
11190;BME280;5651;50.926;4.718;2023-04-12T05:19:45;99694.94;;;9.49;100.00
11190;BME280;5651;50.926;4.718;2023-04-12T05:22:11;99700.09;;;9.52;100.00
11190;BME280;5651;50.926;4.718;2023-04-12T05:24:38;99708.03;;;9.45;100.00
11190;BME280;5651;50.926;4.718;2023-04-12T05:27:04;99704.41;;;9.54;100.00
11190;BME280;5651;50.926;4.718;2023-04-12T05:29:30;99695.97;;;9.41;100.00
11190;BME280;5651;50.926;4.718;2023-04-12T05:31:57;99703.53;;;9.55;100.00
11190;BME280;5651;50.926;4.718;2023-04-12T05:34:23;99698.22;;;9.59;100.00
11190;BME280;5651;50.926;4.718;2023-04-12T05:36:49;99697.47;;;9.54;100.00
11190;BME280;5651;50.926;4.718;2023-04-12T05:39:15;99694.09;;;9.49;100.00
11190;BME280;5651;50.926;4.718;2023-04-12T05:41:41;99699.97;;;9.59;100.00
11190;BME280;5651;50.926;4.718;2023-04-12T05:44:06;99702.31;;;9.71;100.00
11190;BME280;5651;50.926;4.718;2023-04-12T05:46:32;99711.94;;;9.69;100.00
11190;BME280;5651;50.926;4.718;2023-04-12T05:48:58;99722.91;;;9.83;100.00
11190;BME280;5651;50.926;4.718;2023-04-12T05:51:24;99713.69;;;9.67;100.00
11190;BME280;5651;50.926;4.718;2023-04-12T05:53:50;99719.69;;;9.71;100.00
11190;BME280;5651;50.926;4.718;2023-04-12T05:56:16;99710.25;;;9.65;100.00
11190;BME280;5651;50.926;4.718;2023-04-12T05:58:42;99707.66;;;9.65;100.00
11190;BME280;5651;50.926;4.718;2023-04-12T06:01:07;99716.25;;;9.68;100.00
11190;BME280;5651;50.926;4.718;2023-04-12T06:03:33;99704.00;;;9.75;100.00
11190;BME280;5651;50.926;4.718;2023-04-12T06:05:59;99710.63;;;9.90;100.00
11190;BME280;5651;50.926;4.718;2023-04-12T06:08:27;99719.97;;;10.01;100.00
11190;BME280;5651;50.926;4.718;2023-04-12T06:10:54;99720.09;;;9.94;100.00
11190;BME280;5651;50.926;4.718;2023-04-12T06:13:19;99727.16;;;9.88;100.00
11190;BME280;5651;50.926;4.718;2023-04-12T06:15:45;99710.69;;;9.87;100.00
11190;BME280;5651;50.926;4.718;2023-04-12T06:18:11;99716.75;;;9.88;100.00
11190;BME280;5651;50.926;4.718;2023-04-12T06:20:38;99718.47;;;9.89;100.00
11190;BME280;5651;50.926;4.718;2023-04-12T06:23:04;99715.81;;;9.90;100.00
11190;BME280;5651;50.926;4.718;2023-04-12T06:25:31;99714.88;;;9.94;100.00
11190;BME280;5651;50.926;4.718;2023-04-12T06:27:57;99721.78;;;9.97;100.00
11190;BME280;5651;50.926;4.718;2023-04-12T06:30:23;99714.63;;;10.07;100.00
11190;BME280;5651;50.926;4.718;2023-04-12T06:32:49;99704.06;;;10.14;100.00
11190;BME280;5651;50.926;4.718;2023-04-12T06:35:15;99714.66;;;10.05;100.00
11190;BME280;5651;50.926;4.718;2023-04-12T06:37:41;99710.16;;;10.13;100.00
11190;BME280;5651;50.926;4.718;2023-04-12T06:40:07;99706.72;;;10.11;100.00
11190;BME280;5651;50.926;4.718;2023-04-12T06:42:33;99707.47;;;10.18;100.00
11190;BME280;5651;50.926;4.718;2023-04-12T06:44:59;99702.16;;;10.21;100.00
11190;BME280;5651;50.926;4.718;2023-04-12T06:47:25;99714.88;;;10.37;100.00
11190;BME280;5651;50.926;4.718;2023-04-12T06:49:51;99715.91;;;10.28;100.00
11190;BME280;5651;50.926;4.718;2023-04-12T06:52:25;99715.22;;;10.20;100.00
11190;BME280;5651;50.926;4.718;2023-04-12T06:54:51;99716.19;;;10.15;100.00
11190;BME280;5651;50.926;4.718;2023-04-12T06:57:18;99725.69;;;10.18;100.00
11190;BME280;5651;50.926;4.718;2023-04-12T06:59:44;99727.41;;;10.19;100.00
11190;BME280;5651;50.926;4.718;2023-04-12T07:02:10;99725.63;;;10.20;100.00
11190;BME280;5651;50.926;4.718;2023-04-12T07:04:36;99709.88;;;10.26;100.00
11190;BME280;5651;50.926;4.718;2023-04-12T07:07:02;99717.88;;;10.18;100.00
11190;BME280;5651;50.926;4.718;2023-04-12T07:09:30;99722.09;;;10.22;100.00
11190;BME280;5651;50.926;4.718;2023-04-12T07:11:57;99715.78;;;10.34;100.00
11190;BME280;5651;50.926;4.718;2023-04-12T07:14:23;99702.72;;;10.36;100.00
11190;BME280;5651;50.926;4.718;2023-04-12T07:16:49;99711.50;;;10.31;100.00
11190;BME280;5651;50.926;4.718;2023-04-12T07:19:15;99707.13;;;10.34;100.00
11190;BME280;5651;50.926;4.718;2023-04-12T07:21:41;99700.16;;;10.34;100.00
11190;BME280;5651;50.926;4.718;2023-04-12T07:24:07;99700.97;;;10.38;100.00
11190;BME280;5651;50.926;4.718;2023-04-12T07:26:32;99700.97;;;10.38;100.00
11190;BME280;5651;50.926;4.718;2023-04-12T07:28:58;99704.16;;;10.51;100.00
11190;BME280;5651;50.926;4.718;2023-04-12T07:31:24;99705.28;;;10.39;100.00
11190;BME280;5651;50.926;4.718;2023-04-12T07:33:50;99718.13;;;10.48;100.00
11190;BME280;5651;50.926;4.718;2023-04-12T07:36:16;99725.16;;;10.44;100.00
11190;BME280;5651;50.926;4.718;2023-04-12T07:38:45;99722.59;;;10.41;100.00
11190;BME280;5651;50.926;4.718;2023-04-12T07:41:11;99722.56;;;10.43;100.00
11190;BME280;5651;50.926;4.718;2023-04-12T07:43:37;99714.00;;;10.36;100.00
11190;BME280;5651;50.926;4.718;2023-04-12T07:46:03;99723.47;;;10.42;100.00
11190;BME280;5651;50.926;4.718;2023-04-12T07:48:33;99724.72;;;10.63;100.00
11190;BME280;5651;50.926;4.718;2023-04-12T07:50:59;99723.81;;;10.64;100.00
11190;BME280;5651;50.926;4.718;2023-04-12T07:53:26;99727.31;;;10.63;100.00
11190;BME280;5651;50.926;4.718;2023-04-12T07:55:54;99716.94;;;10.61;100.00
11190;BME280;5651;50.926;4.718;2023-04-12T07:58:21;99714.13;;;10.69;100.00
11190;BME280;5651;50.926;4.718;2023-04-12T08:00:48;99706.47;;;11.01;100.00
11190;BME280;5651;50.926;4.718;2023-04-12T08:03:15;99710.13;;;10.92;100.00
11190;BME280;5651;50.926;4.718;2023-04-12T08:05:41;99708.00;;;11.08;100.00
11190;BME280;5651;50.926;4.718;2023-04-12T08:08:09;99709.34;;;11.23;100.00
11190;BME280;5651;50.926;4.718;2023-04-12T08:10:36;99710.78;;;11.36;100.00
11190;BME280;5651;50.926;4.718;2023-04-12T08:13:02;99723.38;;;11.52;100.00
11190;BME280;5651;50.926;4.718;2023-04-12T08:15:28;99712.75;;;11.60;100.00
11190;BME280;5651;50.926;4.718;2023-04-12T08:17:54;99703.22;;;11.58;100.00
11190;BME280;5651;50.926;4.718;2023-04-12T08:20:20;99705.53;;;11.69;100.00
11190;BME280;5651;50.926;4.718;2023-04-12T08:22:47;99713.66;;;11.58;100.00
11190;BME280;5651;50.926;4.718;2023-04-12T08:25:13;99705.66;;;11.65;100.00
11190;BME280;5651;50.926;4.718;2023-04-12T08:27:43;99706.88;;;11.51;100.00
11190;BME280;5651;50.926;4.718;2023-04-12T08:30:11;99697.81;;;11.65;100.00
11190;BME280;5651;50.926;4.718;2023-04-12T08:32:37;99696.88;;;11.67;100.00
11190;BME280;5651;50.926;4.718;2023-04-12T08:35:04;99699.91;;;11.52;100.00
11190;BME280;5651;50.926;4.718;2023-04-12T08:37:31;99697.28;;;11.53;100.00
11190;BME280;5651;50.926;4.718;2023-04-12T08:40:05;99699.22;;;11.77;100.00
11190;BME280;5651;50.926;4.718;2023-04-12T08:42:34;99703.19;;;11.90;100.00
11190;BME280;5651;50.926;4.718;2023-04-12T08:45:05;99697.16;;;12.19;99.69
11190;BME280;5651;50.926;4.718;2023-04-12T08:47:33;99686.56;;;12.24;99.86
11190;BME280;5651;50.926;4.718;2023-04-12T08:50:00;99678.22;;;12.41;97.99
11190;BME280;5651;50.926;4.718;2023-04-12T08:52:27;99688.19;;;12.28;100.00
11190;BME280;5651;50.926;4.718;2023-04-12T08:54:54;99695.13;;;12.29;98.03
11190;BME280;5651;50.926;4.718;2023-04-12T08:57:20;99695.59;;;12.42;97.45
11190;BME280;5651;50.926;4.718;2023-04-12T08:59:49;99691.56;;;12.32;100.00
11190;BME280;5651;50.926;4.718;2023-04-12T09:02:15;99695.47;;;12.47;98.49
11190;BME280;5651;50.926;4.718;2023-04-12T09:04:50;99692.38;;;12.62;97.81
11190;BME280;5651;50.926;4.718;2023-04-12T09:07:21;99694.50;;;12.78;96.40
11190;BME280;5651;50.926;4.718;2023-04-12T09:09:56;99700.72;;;12.74;93.61
11190;BME280;5651;50.926;4.718;2023-04-12T09:12:23;99699.25;;;12.65;96.19
11190;BME280;5651;50.926;4.718;2023-04-12T09:15:09;99701.03;;;12.64;96.36
11190;BME280;5651;50.926;4.718;2023-04-12T09:17:37;99701.66;;;12.71;95.33
11190;BME280;5651;50.926;4.718;2023-04-12T09:22:41;99695.34;;;13.05;91.69
11190;BME280;5651;50.926;4.718;2023-04-12T09:25:10;99702.16;;;13.09;92.12
11190;BME280;5651;50.926;4.718;2023-04-12T09:27:50;99702.22;;;13.08;90.45
11190;BME280;5651;50.926;4.718;2023-04-12T09:30:18;99695.44;;;13.02;89.37
11190;BME280;5651;50.926;4.718;2023-04-12T09:32:44;99687.59;;;13.02;88.06
11190;BME280;5651;50.926;4.718;2023-04-12T09:35:11;99672.94;;;12.96;91.63
11190;BME280;5651;50.926;4.718;2023-04-12T09:37:37;99691.66;;;13.11;90.29
11190;BME280;5651;50.926;4.718;2023-04-12T09:40:05;99699.19;;;13.20;88.21
11190;BME280;5651;50.926;4.718;2023-04-12T09:42:50;99705.69;;;13.08;87.14
11190;BME280;5651;50.926;4.718;2023-04-12T09:45:24;99710.22;;;13.03;85.85
11190;BME280;5651;50.926;4.718;2023-04-12T09:47:51;99711.19;;;13.00;86.92
11190;BME280;5651;50.926;4.718;2023-04-12T09:50:28;99718.47;;;12.91;89.56
11190;BME280;5651;50.926;4.718;2023-04-12T09:52:56;99716.09;;;12.83;89.44
11190;BME280;5651;50.926;4.718;2023-04-12T09:55:24;99717.59;;;12.63;88.36
11190;BME280;5651;50.926;4.718;2023-04-12T09:57:52;99713.97;;;12.67;89.28
11190;BME280;5651;50.926;4.718;2023-04-12T10:00:21;99710.63;;;12.91;89.52
11190;BME280;5651;50.926;4.718;2023-04-12T10:02:50;99712.50;;;12.87;89.28
11190;BME280;5651;50.926;4.718;2023-04-12T10:05:18;99715.09;;;13.14;86.19
11190;BME280;5651;50.926;4.718;2023-04-12T10:07:46;99712.53;;;13.12;87.72
11190;BME280;5651;50.926;4.718;2023-04-12T10:10:13;99711.44;;;13.20;88.66
11190;BME280;5651;50.926;4.718;2023-04-12T10:12:41;99713.16;;;13.19;87.30
11190;BME280;5651;50.926;4.718;2023-04-12T10:15:11;99710.56;;;13.19;87.28
11190;BME280;5651;50.926;4.718;2023-04-12T10:17:42;99708.75;;;13.21;84.47
11190;BME280;5651;50.926;4.718;2023-04-12T10:20:10;99702.91;;;13.13;85.31
11190;BME280;5651;50.926;4.718;2023-04-12T10:22:55;99706.56;;;13.09;83.03
11190;BME280;5651;50.926;4.718;2023-04-12T10:25:25;99704.94;;;12.78;85.38
11190;BME280;5651;50.926;4.718;2023-04-12T10:27:52;99701.91;;;12.90;86.16
11190;BME280;5651;50.926;4.718;2023-04-12T10:38:14;99701.94;;;13.17;84.43
11190;BME280;5651;50.926;4.718;2023-04-12T10:41:06;99698.06;;;13.27;84.01
11190;BME280;5651;50.926;4.718;2023-04-12T10:43:32;99689.16;;;13.33;82.13
11190;BME280;5651;50.926;4.718;2023-04-12T10:45:58;99691.72;;;13.35;85.72
11190;BME280;5651;50.926;4.718;2023-04-12T10:48:32;99689.00;;;13.63;83.25
11190;BME280;5651;50.926;4.718;2023-04-12T10:53:36;99694.59;;;14.01;83.02
11190;BME280;5651;50.926;4.718;2023-04-12T10:58:55;99696.66;;;13.93;79.95
11190;BME280;5651;50.926;4.718;2023-04-12T11:01:21;99707.34;;;13.63;83.47
11190;BME280;5651;50.926;4.718;2023-04-12T11:04:10;99715.22;;;13.36;84.91
11190;BME280;5651;50.926;4.718;2023-04-12T11:06:49;99719.97;;;13.52;85.28
11190;BME280;5651;50.926;4.718;2023-04-12T11:09:25;99711.69;;;13.39;85.12
11190;BME280;5651;50.926;4.718;2023-04-12T11:12:13;99716.75;;;13.43;86.58
11190;BME280;5651;50.926;4.718;2023-04-12T11:14:50;99711.59;;;13.66;84.43
11190;BME280;5651;50.926;4.718;2023-04-12T11:19:44;99697.16;;;13.79;83.22
11190;BME280;5651;50.926;4.718;2023-04-12T11:22:12;99698.47;;;14.15;82.56
11190;BME280;5651;50.926;4.718;2023-04-12T11:24:42;99696.91;;;14.09;78.99
11190;BME280;5651;50.926;4.718;2023-04-12T11:27:09;99686.44;;;14.09;81.65
11190;BME280;5651;50.926;4.718;2023-04-12T11:29:35;99688.44;;;14.26;79.96
11190;BME280;5651;50.926;4.718;2023-04-12T11:32:02;99689.13;;;14.53;80.91
11190;BME280;5651;50.926;4.718;2023-04-12T11:34:33;99680.31;;;14.54;75.07
11190;BME280;5651;50.926;4.718;2023-04-12T11:36:59;99676.22;;;14.47;79.62
11190;BME280;5651;50.926;4.718;2023-04-12T11:39:28;99678.63;;;14.53;73.03
11190;BME280;5651;50.926;4.718;2023-04-12T11:41:54;99682.63;;;14.40;70.05
11190;BME280;5651;50.926;4.718;2023-04-12T11:44:21;99686.47;;;14.31;69.53
11190;BME280;5651;50.926;4.718;2023-04-12T11:46:47;99679.28;;;14.36;71.45
11190;BME280;5651;50.926;4.718;2023-04-12T11:49:19;99683.53;;;14.39;71.09
11190;BME280;5651;50.926;4.718;2023-04-12T11:51:46;99677.28;;;14.43;70.39
11190;BME280;5651;50.926;4.718;2023-04-12T11:54:12;99687.59;;;14.48;72.70
11190;BME280;5651;50.926;4.718;2023-04-12T11:56:39;99680.41;;;14.31;69.47
11190;BME280;5651;50.926;4.718;2023-04-12T11:59:06;99675.22;;;14.51;71.29
11190;BME280;5651;50.926;4.718;2023-04-12T12:01:35;99673.09;;;14.83;69.58
11190;BME280;5651;50.926;4.718;2023-04-12T12:04:03;99673.66;;;14.69;67.46
11190;BME280;5651;50.926;4.718;2023-04-12T12:06:29;99687.22;;;14.79;66.25
11190;BME280;5651;50.926;4.718;2023-04-12T12:08:55;99690.91;;;14.75;67.52
11190;BME280;5651;50.926;4.718;2023-04-12T12:11:22;99726.81;;;14.73;68.70
11190;BME280;5651;50.926;4.718;2023-04-12T12:13:55;99742.00;;;14.19;67.89
11190;BME280;5651;50.926;4.718;2023-04-12T12:16:25;99749.66;;;13.76;70.07
11190;BME280;5651;50.926;4.718;2023-04-12T12:18:52;99764.72;;;13.15;74.12
11190;BME280;5651;50.926;4.718;2023-04-12T12:21:19;99768.44;;;12.81;77.34
11190;BME280;5651;50.926;4.718;2023-04-12T12:23:45;99774.34;;;12.60;79.45
11190;BME280;5651;50.926;4.718;2023-04-12T12:26:25;99777.00;;;12.28;79.54
11190;BME280;5651;50.926;4.718;2023-04-12T12:28:54;99779.34;;;11.73;81.47
11190;BME280;5651;50.926;4.718;2023-04-12T12:31:21;99755.88;;;11.40;80.95
11190;BME280;5651;50.926;4.718;2023-04-12T12:33:48;99760.19;;;11.06;80.52
11190;BME280;5651;50.926;4.718;2023-04-12T12:36:17;99742.69;;;10.75;80.28
11190;BME280;5651;50.926;4.718;2023-04-12T12:38:46;99718.31;;;10.39;76.97
11190;BME280;5651;50.926;4.718;2023-04-12T12:41:15;99732.38;;;10.69;77.80
11190;BME280;5651;50.926;4.718;2023-04-12T12:43:49;99733.81;;;10.83;82.07
11190;BME280;5651;50.926;4.718;2023-04-12T12:46:16;99740.75;;;11.18;85.73
11190;BME280;5651;50.926;4.718;2023-04-12T12:48:46;99741.56;;;11.55;83.32
11190;BME280;5651;50.926;4.718;2023-04-12T12:51:13;99747.06;;;11.77;82.04
11190;BME280;5651;50.926;4.718;2023-04-12T12:53:42;99735.25;;;11.97;81.65
11190;BME280;5651;50.926;4.718;2023-04-12T12:56:09;99735.84;;;12.07;82.79
11190;BME280;5651;50.926;4.718;2023-04-12T12:58:36;99754.22;;;12.02;82.05
11190;BME280;5651;50.926;4.718;2023-04-12T13:01:03;99742.50;;;12.17;80.68
11190;BME280;5651;50.926;4.718;2023-04-12T13:03:29;99737.00;;;11.95;81.85
11190;BME280;5651;50.926;4.718;2023-04-12T13:05:55;99734.28;;;11.99;81.47
11190;BME280;5651;50.926;4.718;2023-04-12T13:08:22;99723.94;;;11.96;81.64
11190;BME280;5651;50.926;4.718;2023-04-12T13:10:48;99719.34;;;11.73;83.88
11190;BME280;5651;50.926;4.718;2023-04-12T13:13:15;99718.84;;;11.90;83.47
11190;BME280;5651;50.926;4.718;2023-04-12T13:15:41;99711.03;;;11.90;84.65
11190;BME280;5651;50.926;4.718;2023-04-12T13:18:07;99713.84;;;12.14;83.97
11190;BME280;5651;50.926;4.718;2023-04-12T13:20:33;99702.66;;;12.10;84.79
11190;BME280;5651;50.926;4.718;2023-04-12T13:22:59;99706.44;;;12.30;82.46
11190;BME280;5651;50.926;4.718;2023-04-12T13:25:25;99701.81;;;12.66;82.81
11190;BME280;5651;50.926;4.718;2023-04-12T13:27:51;99706.56;;;13.09;79.60
11190;BME280;5651;50.926;4.718;2023-04-12T13:30:18;99707.38;;;13.36;76.04
11190;BME280;5651;50.926;4.718;2023-04-12T13:32:44;99693.44;;;13.61;76.03
11190;BME280;5651;50.926;4.718;2023-04-12T13:35:11;99701.25;;;13.86;72.44
11190;BME280;5651;50.926;4.718;2023-04-12T13:37:37;99706.56;;;14.08;72.94
11190;BME280;5651;50.926;4.718;2023-04-12T13:40:03;99692.69;;;14.29;71.12